EmailTwitter


Observations de surface / Québec / CYHU (71371)

Régions: Québec | Canada | États-Unis | Europe | France | UK | Elsewhere
Station
Affichage
Infos & localisation pour CYHU (71371) | Aide pour décoder les METARs

Observations prises le 2017-03-28 à 04H00 UTC à MONTREAL/ST HUBE, QB (CYHU)

Etat du ciel: couvert.

Obstacle(s) à la visibilité: brouillard.

Température: 3.0 Celsius

Point de rosée: 3.0 Celsius

Humidité relative: 100%

Vents: Calme à 0 km/h ou 0 noeuds.

Pression au niveau moyen de la mer: 101.33 kilopascals.

Calage altimétrique: 101.29 kilopascals ou 29.91 pouces de mercure.

Visibilité horizontale: 0.38 milles terrestres ou 0.60 kilomètres.

Hauteur du plafond: 91 mètres ( 300 pieds ).

Observation METAR:

CYHU 280400Z AUTO 00000KT 3/8SM R24R/5000FT/D FG OVC003 03/03 A2991 RMK SLP133=